createdAt,value
2023-04-11T00:02:09.426Z,67.69
2023-04-11T00:04:39.225Z,69.71
2023-04-11T00:07:08.820Z,64.31
2023-04-11T00:09:37.074Z,66.26
2023-04-11T00:12:07.470Z,64.67
2023-04-11T00:14:35.764Z,65.43
2023-04-11T00:17:06.235Z,65.74
2023-04-11T00:19:34.591Z,66.79
2023-04-11T00:22:02.930Z,65.75
2023-04-11T00:24:31.258Z,64.70
2023-04-11T00:26:59.591Z,64.04
2023-04-11T00:29:29.378Z,65.27
2023-04-11T00:31:57.698Z,67.03
2023-04-11T00:34:26.492Z,64.93
2023-04-11T00:36:54.819Z,64.71
2023-04-11T00:39:23.645Z,82.37
2023-04-11T00:41:51.902Z,66.47
2023-04-11T00:44:20.220Z,65.73
2023-04-11T00:46:49.973Z,65.78
2023-04-11T00:49:18.182Z,66.75
2023-04-11T00:51:46.533Z,67.02
2023-04-11T00:54:17.263Z,64.48
2023-04-11T00:56:45.829Z,64.63
2023-04-11T00:59:14.334Z,72.42
2023-04-11T01:01:43.565Z,64.15
2023-04-11T01:04:13.916Z,66.01
2023-04-11T01:06:42.612Z,65.02
2023-04-11T01:09:10.969Z,68.24
2023-04-11T01:11:39.543Z,64.96
2023-04-11T01:14:08.204Z,65.71
2023-04-11T01:16:36.619Z,65.79
2023-04-11T01:19:05.512Z,64.92
2023-04-11T01:21:36.272Z,64.89
2023-04-11T01:24:06.695Z,65.40
2023-04-11T01:26:35.494Z,64.71
2023-04-11T01:29:03.938Z,65.17
2023-04-11T01:31:33.034Z,64.57
2023-04-11T01:34:02.415Z,63.49
2023-04-11T01:36:31.770Z,63.76
2023-04-11T01:39:00.601Z,64.70
2023-04-11T01:41:32.657Z,63.24
2023-04-11T01:44:01.346Z,65.24
2023-04-11T01:46:29.687Z,66.83
2023-04-11T01:48:59.357Z,62.17
2023-04-11T01:51:27.795Z,62.04
2023-04-11T01:53:56.191Z,62.92
2023-04-11T01:56:24.456Z,63.36
2023-04-11T01:58:54.359Z,63.71
2023-04-11T02:01:22.923Z,64.53
2023-04-11T02:03:51.420Z,63.94
2023-04-11T02:06:19.976Z,64.21
2023-04-11T02:08:48.262Z,63.91
2023-04-11T02:11:16.553Z,63.91
2023-04-11T02:13:44.971Z,64.14
2023-04-11T02:16:15.418Z,64.82
2023-04-11T02:18:44.811Z,64.24
2023-04-11T02:21:13.304Z,64.15
2023-04-11T02:23:41.592Z,64.53
2023-04-11T02:26:09.949Z,64.37
2023-04-11T02:28:38.233Z,65.03
2023-04-11T02:31:06.601Z,64.53
2023-04-11T02:33:36.362Z,65.36
2023-04-11T02:36:04.918Z,65.42
2023-04-11T02:38:33.350Z,65.39
2023-04-11T02:41:02.156Z,65.39
2023-04-11T02:43:30.408Z,65.48
2023-04-11T02:46:09.456Z,66.48
2023-04-11T02:48:41.879Z,64.95
2023-04-11T02:51:10.174Z,65.16
2023-04-11T02:53:38.447Z,66.17
2023-04-11T02:56:10.947Z,66.08
2023-04-11T02:58:42.125Z,65.34
2023-04-11T03:01:12.205Z,66.26
2023-04-11T03:03:42.090Z,65.48
2023-04-11T03:06:10.665Z,65.91
2023-04-11T03:08:39.307Z,66.52
2023-04-11T03:11:07.609Z,66.29
2023-04-11T03:13:37.273Z,66.47
2023-04-11T03:16:06.727Z,66.24
2023-04-11T03:18:35.084Z,66.02
2023-04-11T03:21:04.868Z,66.20
2023-04-11T03:23:33.265Z,66.42
2023-04-11T03:26:01.533Z,66.24
2023-04-11T03:28:29.805Z,66.90
2023-04-11T03:30:58.143Z,66.14
2023-04-11T03:33:26.423Z,66.49
2023-04-11T03:35:54.881Z,66.42
2023-04-11T03:38:24.610Z,66.31
2023-04-11T03:40:52.972Z,65.97
2023-04-11T03:43:21.348Z,66.96
2023-04-11T03:45:51.873Z,66.34
2023-04-11T03:48:20.658Z,64.97
2023-04-11T03:50:49.136Z,64.44
2023-04-11T03:53:17.392Z,64.88
2023-04-11T03:55:49.134Z,65.37
2023-04-11T03:58:17.470Z,64.19
2023-04-11T04:00:46.531Z,63.48
2023-04-11T04:03:15.423Z,63.80
2023-04-11T04:05:43.844Z,63.56
2023-04-11T04:08:12.146Z,64.54
2023-04-11T04:10:40.389Z,64.37
2023-04-11T04:13:10.067Z,64.26
2023-04-11T04:15:38.349Z,64.60
2023-04-11T04:18:06.648Z,64.52
2023-04-11T04:20:34.994Z,63.83
2023-04-11T04:23:04.705Z,64.66
2023-04-11T04:25:33.065Z,64.54
2023-04-11T04:28:01.336Z,63.44
2023-04-11T04:30:30.970Z,64.17
2023-04-11T04:33:00.542Z,64.18
2023-04-11T04:35:28.824Z,63.87
2023-04-11T04:37:57.112Z,63.93
2023-04-11T04:40:26.205Z,63.05
2023-04-11T04:42:58.818Z,63.44
2023-04-11T04:45:27.317Z,62.98
2023-04-11T04:47:57.009Z,62.71
2023-04-11T04:50:25.464Z,64.35
2023-04-11T04:52:53.900Z,63.08
2023-04-11T04:55:22.265Z,63.51
2023-04-11T05:00:36.840Z,71.30
2023-04-11T05:03:08.850Z,61.55
2023-04-11T05:05:37.406Z,65.34
2023-04-11T05:08:06.068Z,67.99
2023-04-11T05:10:34.291Z,63.46
2023-04-11T05:13:02.597Z,63.55
2023-04-11T05:15:30.855Z,60.92
2023-04-11T05:17:59.257Z,60.66
2023-04-11T05:20:29.872Z,61.04
2023-04-11T05:22:58.239Z,60.68
2023-04-11T05:25:27.310Z,61.33
2023-04-11T05:27:55.708Z,60.72
2023-04-11T05:30:24.112Z,60.65
2023-04-11T05:32:52.523Z,60.81
2023-04-11T05:35:21.620Z,65.92
2023-04-11T05:37:51.522Z,62.83
2023-04-11T05:40:19.978Z,64.55
2023-04-11T05:42:48.280Z,64.42
2023-04-11T05:45:16.678Z,64.74
2023-04-11T05:47:45.026Z,66.76
2023-04-11T05:50:13.329Z,64.01
2023-04-11T05:52:41.776Z,66.58
2023-04-11T05:55:12.465Z,66.78
2023-04-11T05:57:40.920Z,65.82
2023-04-11T06:00:13.261Z,66.13
2023-04-11T06:02:43.265Z,66.48
2023-04-11T06:05:12.548Z,66.31
2023-04-11T06:07:41.570Z,66.58
2023-04-11T06:10:11.866Z,65.51
2023-04-11T06:12:40.486Z,65.67
2023-04-11T06:15:11.979Z,66.58
2023-04-11T06:17:40.380Z,65.75
2023-04-11T06:20:10.773Z,65.73
2023-04-11T06:22:40.366Z,66.55
2023-04-11T06:25:09.518Z,65.76
2023-04-11T06:27:39.244Z,64.19
2023-04-11T06:30:09.144Z,63.29
2023-04-11T06:32:37.443Z,63.49
2023-04-11T06:35:07.760Z,63.26
2023-04-11T06:37:36.231Z,63.13
2023-04-11T06:40:05.901Z,60.47
2023-04-11T06:42:34.172Z,60.69
2023-04-11T06:45:06.107Z,61.38
2023-04-11T06:47:34.629Z,59.89
2023-04-11T06:50:02.841Z,59.72
2023-04-11T06:52:31.580Z,60.51
2023-04-11T06:54:59.845Z,59.93
2023-04-11T06:57:28.126Z,60.58
2023-04-11T06:59:56.359Z,59.74
2023-04-11T07:02:26.487Z,60.94
2023-04-11T07:04:55.351Z,59.95
2023-04-11T07:07:23.847Z,58.71
2023-04-11T07:09:52.211Z,57.79
2023-04-11T07:12:20.601Z,57.88
2023-04-11T07:14:48.949Z,57.29
2023-04-11T07:17:17.662Z,56.95
2023-04-11T07:19:47.372Z,57.97
2023-04-11T07:22:15.705Z,57.50
2023-04-11T07:24:46.896Z,56.14
2023-04-11T07:27:15.886Z,55.60
2023-04-11T07:29:44.232Z,55.52
2023-04-11T07:32:12.496Z,54.66
2023-04-11T07:34:40.821Z,54.47
2023-04-11T07:37:11.242Z,53.58
2023-04-11T07:39:40.538Z,54.49
2023-04-11T07:42:09.005Z,53.15
2023-04-11T07:44:37.411Z,52.84
2023-04-11T07:47:05.796Z,53.10
2023-04-11T07:49:34.072Z,52.07
2023-04-11T07:52:02.482Z,52.02
2023-04-11T07:54:32.166Z,50.96
2023-04-11T07:57:00.808Z,50.89
2023-04-11T07:59:29.107Z,49.28
2023-04-11T08:02:01.513Z,49.79
2023-04-11T08:04:33.200Z,49.36
2023-04-11T08:07:02.071Z,48.28
2023-04-11T08:09:31.853Z,49.41
2023-04-11T08:12:01.856Z,47.93
2023-04-11T08:14:30.101Z,48.00
2023-04-11T08:16:58.454Z,47.12
2023-04-11T08:19:26.709Z,47.41
2023-04-11T08:21:55.469Z,46.98
2023-04-11T08:24:23.882Z,47.65
2023-04-11T08:26:53.601Z,46.90
2023-04-11T08:29:21.958Z,44.69
2023-04-11T08:31:50.454Z,43.48
2023-04-11T08:34:18.759Z,44.79
2023-04-11T08:36:47.123Z,45.10
2023-04-11T08:39:15.459Z,45.05
2023-04-11T08:41:44.549Z,44.65
2023-04-11T08:44:14.288Z,44.88
2023-04-11T08:46:44.375Z,46.05
2023-04-11T08:49:12.790Z,45.39
2023-04-11T08:51:44.997Z,44.66
2023-04-11T08:54:13.757Z,45.64
2023-04-11T08:56:44.055Z,44.28
2023-04-11T08:59:13.704Z,44.29
2023-04-11T09:01:42.254Z,44.05
2023-04-11T09:04:11.635Z,44.12
2023-04-11T09:06:40.447Z,43.72
2023-04-11T09:09:09.867Z,44.36
2023-04-11T09:11:54.699Z,44.75
2023-04-11T09:14:26.975Z,45.27
2023-04-11T09:16:57.031Z,44.88
2023-04-11T09:19:26.231Z,44.74
2023-04-11T09:21:55.263Z,44.49
2023-04-11T09:24:23.746Z,45.63
2023-04-11T09:26:52.611Z,45.68
2023-04-11T09:29:37.686Z,45.07
2023-04-11T09:32:06.168Z,44.36
2023-04-11T09:34:37.823Z,44.47
2023-04-11T09:37:06.624Z,44.09
2023-04-11T09:39:34.989Z,45.08
2023-04-11T09:42:03.384Z,43.98
2023-04-11T09:44:39.775Z,43.95
2023-04-11T09:47:08.071Z,44.76
2023-04-11T09:49:37.057Z,43.79
2023-04-11T09:52:06.574Z,43.63
2023-04-11T09:54:35.322Z,43.43
2023-04-11T09:57:06.992Z,43.41
2023-04-11T09:59:37.293Z,41.74
2023-04-11T10:02:07.158Z,43.17
2023-04-11T10:04:35.854Z,41.13
2023-04-11T10:07:12.249Z,41.67
2023-04-11T10:09:43.836Z,41.21
2023-04-11T10:12:12.153Z,40.95
2023-04-11T10:14:44.719Z,41.41
2023-04-11T10:17:20.711Z,40.62
2023-04-11T10:19:51.803Z,39.88
2023-04-11T10:22:56.135Z,40.95
2023-04-11T10:25:25.386Z,40.11
2023-04-11T10:28:00.628Z,40.62
2023-04-11T10:31:00.636Z,41.13
2023-04-11T10:33:30.516Z,41.30
2023-04-11T10:36:00.271Z,40.30
2023-04-11T10:38:50.210Z,40.87
2023-04-11T10:41:28.567Z,41.24
2023-04-11T10:44:18.495Z,40.77
2023-04-11T10:46:48.999Z,40.94
2023-04-11T10:49:36.755Z,41.36
2023-04-11T10:52:24.560Z,39.26
2023-04-11T10:54:54.281Z,41.43
2023-04-11T10:57:23.444Z,38.26
2023-04-11T11:00:02.128Z,38.75
2023-04-11T11:02:41.162Z,38.74
2023-04-11T11:05:22.000Z,37.24
2023-04-11T11:07:52.446Z,38.08
2023-04-11T11:10:54.408Z,37.20
2023-04-11T11:13:23.607Z,36.26
2023-04-11T11:15:52.145Z,36.05
2023-04-11T11:18:20.615Z,36.25
2023-04-11T11:20:56.360Z,37.78
2023-04-11T11:23:24.581Z,39.41
2023-04-11T11:25:56.575Z,38.06
2023-04-11T11:28:25.322Z,37.15
2023-04-11T11:30:55.642Z,35.91
2023-04-11T11:33:26.795Z,34.69
2023-04-11T11:35:58.477Z,36.26
2023-04-11T11:38:28.501Z,33.91
2023-04-11T11:40:58.052Z,34.14
2023-04-11T11:43:28.001Z,32.31
2023-04-11T11:46:10.300Z,33.12
2023-04-11T11:48:38.726Z,37.08
2023-04-11T11:51:09.029Z,32.64
2023-04-11T11:53:37.490Z,33.23
2023-04-11T11:56:16.478Z,33.99
2023-04-11T11:58:47.189Z,35.35
2023-04-11T12:01:17.284Z,34.17
2023-04-11T12:03:48.744Z,34.36
2023-04-11T12:06:18.880Z,37.75
2023-04-11T12:08:51.781Z,35.39
2023-04-11T12:11:20.033Z,32.99
2023-04-11T12:13:53.513Z,33.49
2023-04-11T12:16:24.271Z,33.82
2023-04-11T12:18:52.795Z,33.21
2023-04-11T12:21:22.577Z,33.94
2023-04-11T12:23:50.858Z,38.72
2023-04-11T12:26:20.406Z,30.70
2023-04-11T12:28:49.503Z,30.95
2023-04-11T12:31:17.889Z,30.54
2023-04-11T12:33:46.323Z,32.15
2023-04-11T12:36:14.642Z,30.01
2023-04-11T12:38:44.448Z,29.09
2023-04-11T12:41:31.118Z,31.50
2023-04-11T12:44:02.529Z,28.74
2023-04-11T12:46:30.972Z,29.73
2023-04-11T12:48:59.320Z,29.48
2023-04-11T12:51:27.700Z,28.42
2023-04-11T12:53:57.317Z,31.10
2023-04-11T12:56:25.663Z,29.61
2023-04-11T12:58:54.208Z,29.79
2023-04-11T13:01:23.745Z,30.90
2023-04-11T13:03:52.191Z,30.59
2023-04-11T13:06:20.759Z,31.39
2023-04-11T13:08:49.171Z,34.10
2023-04-11T13:11:18.993Z,33.44
2023-04-11T13:13:47.271Z,32.05
2023-04-11T13:16:15.660Z,32.75
2023-04-11T13:18:44.020Z,32.79
2023-04-11T13:21:12.399Z,32.80
2023-04-11T13:23:40.670Z,33.36
2023-04-11T13:26:09.622Z,33.45
2023-04-11T13:28:39.618Z,33.18
2023-04-11T13:31:10.460Z,35.05
2023-04-11T13:33:40.725Z,33.80
2023-04-11T13:36:10.478Z,34.37
2023-04-11T13:38:38.966Z,34.87
2023-04-11T13:41:07.615Z,34.08
2023-04-11T13:43:35.922Z,34.58
2023-04-11T13:46:06.216Z,34.67
2023-04-11T13:48:34.694Z,34.97
2023-04-11T13:51:04.372Z,35.81
2023-04-11T13:53:32.652Z,34.74
2023-04-11T13:56:01.076Z,34.13
2023-04-11T13:58:29.548Z,33.74
2023-04-11T14:00:58.092Z,34.01
2023-04-11T14:03:30.303Z,35.12
2023-04-11T14:05:58.636Z,34.29
2023-04-11T14:08:28.477Z,33.55
2023-04-11T14:10:56.777Z,32.47
2023-04-11T14:13:25.085Z,31.42
2023-04-11T14:16:07.293Z,30.90
2023-04-11T14:18:38.227Z,30.41
2023-04-11T14:21:08.267Z,30.76
2023-04-11T14:23:36.957Z,29.98
2023-04-11T14:26:05.497Z,29.99
2023-04-11T14:28:33.893Z,30.08
2023-04-11T14:31:02.649Z,30.09
2023-04-11T14:33:31.560Z,29.98
2023-04-11T14:36:01.842Z,29.66
2023-04-11T14:38:30.084Z,29.46
2023-04-11T14:40:58.492Z,29.90
2023-04-11T14:43:26.861Z,29.70
2023-04-11T14:45:57.550Z,30.04
2023-04-11T14:48:27.487Z,29.90
2023-04-11T14:50:56.052Z,29.87
2023-04-11T14:53:26.645Z,29.60
2023-04-11T14:55:54.879Z,29.92
2023-04-11T14:58:23.188Z,30.59
2023-04-11T15:00:51.623Z,29.62
2023-04-11T15:03:20.361Z,30.11
2023-04-11T15:05:51.338Z,30.29
2023-04-11T15:08:19.592Z,30.19
2023-04-11T15:10:54.351Z,29.97
2023-04-11T15:13:23.358Z,30.82
2023-04-11T15:15:52.133Z,31.12
2023-04-11T15:18:22.902Z,31.03
2023-04-11T15:20:52.575Z,31.82
2023-04-11T15:23:21.626Z,32.08
2023-04-11T15:25:55.658Z,32.17
2023-04-11T15:28:24.802Z,32.92
2023-04-11T15:30:55.107Z,31.77
2023-04-11T15:33:24.416Z,32.40
2023-04-11T15:35:54.487Z,31.97
2023-04-11T15:38:23.110Z,32.99
2023-04-11T15:40:52.314Z,32.62
2023-04-11T15:43:22.901Z,33.41
2023-04-11T15:45:52.546Z,34.03
2023-04-11T15:48:20.902Z,34.75
2023-04-11T15:50:49.169Z,33.95
2023-04-11T15:53:17.513Z,34.49
2023-04-11T15:55:47.216Z,34.36
2023-04-11T15:58:15.525Z,34.05
2023-04-11T16:00:45.300Z,35.13
2023-04-11T16:03:13.778Z,35.02
2023-04-11T16:05:43.375Z,35.78
2023-04-11T16:08:11.891Z,35.40
2023-04-11T16:10:40.233Z,35.93
2023-04-11T16:13:08.898Z,35.88
2023-04-11T16:15:37.187Z,35.65
2023-04-11T16:18:07.258Z,36.62
2023-04-11T16:20:35.872Z,37.33
2023-04-11T16:23:04.339Z,36.65
2023-04-11T16:25:32.969Z,36.41
2023-04-11T16:28:01.306Z,37.02
2023-04-11T16:30:29.667Z,36.61
2023-04-11T16:32:58.532Z,36.88
2023-04-11T16:35:28.457Z,36.98
2023-04-11T16:37:56.740Z,37.50
2023-04-11T16:40:25.025Z,37.11
2023-04-11T16:42:53.321Z,37.28
2023-04-11T16:45:21.621Z,37.86
2023-04-11T16:47:49.905Z,37.90
2023-04-11T16:50:18.649Z,38.21
2023-04-11T16:52:48.616Z,38.58
2023-04-11T16:55:17.078Z,38.29
2023-04-11T16:57:45.573Z,38.38
2023-04-11T17:00:16.452Z,39.25
2023-04-11T17:02:44.972Z,38.30
2023-04-11T17:05:13.701Z,39.31
2023-04-11T17:07:43.982Z,39.33
2023-04-11T17:10:13.970Z,39.84
2023-04-11T17:12:42.236Z,40.09
2023-04-11T17:15:11.423Z,39.99
2023-04-11T17:17:39.791Z,40.06
2023-04-11T17:20:10.343Z,40.65
2023-04-11T17:22:41.643Z,40.33
2023-04-11T17:25:10.714Z,40.64
2023-04-11T17:27:41.407Z,40.87
2023-04-11T17:30:12.148Z,59.14
2023-04-11T17:32:40.674Z,59.46
2023-04-11T17:35:09.557Z,43.57
2023-04-11T17:37:37.847Z,44.02
2023-04-11T17:40:13.357Z,43.67
2023-04-11T17:42:43.299Z,43.86
2023-04-11T17:47:44.826Z,43.93
2023-04-11T17:50:14.314Z,43.59
2023-04-11T17:52:44.209Z,45.17
2023-04-11T17:55:14.593Z,45.12
2023-04-11T17:57:46.072Z,45.49
2023-04-11T18:00:19.844Z,44.79
2023-04-11T18:02:50.085Z,44.96
2023-04-11T18:05:24.323Z,44.92
2023-04-11T18:07:54.873Z,44.91
2023-04-11T18:10:23.532Z,44.52
2023-04-11T18:12:53.952Z,44.99
2023-04-11T18:15:23.503Z,45.79
2023-04-11T18:17:52.537Z,45.86
2023-04-11T18:20:21.247Z,45.41
2023-04-11T18:22:51.822Z,45.20
2023-04-11T18:25:20.116Z,45.99
2023-04-11T18:27:48.487Z,45.93
2023-04-11T18:30:18.535Z,45.05
2023-04-11T18:32:49.338Z,45.87
2023-04-11T18:35:18.803Z,46.24
2023-04-11T18:37:47.378Z,46.41
2023-04-11T18:40:15.983Z,46.39
2023-04-11T18:42:46.633Z,46.75
2023-04-11T18:45:15.767Z,46.35
2023-04-11T18:47:46.494Z,45.85
2023-04-11T18:50:15.000Z,45.67
2023-04-11T18:52:45.362Z,46.21
2023-04-11T18:55:14.326Z,45.87
2023-04-11T18:57:46.064Z,46.12
2023-04-11T19:00:19.086Z,46.40
2023-04-11T19:02:50.772Z,46.61
2023-04-11T19:05:19.602Z,46.68
2023-04-11T19:07:48.034Z,47.26
2023-04-11T19:10:16.262Z,47.27
2023-04-11T19:12:44.507Z,47.60
2023-04-11T19:15:13.924Z,47.14
2023-04-11T19:17:42.396Z,48.00
2023-04-11T19:20:13.723Z,48.26
2023-04-11T19:22:42.061Z,48.54
2023-04-11T19:25:12.225Z,47.94
2023-04-11T19:27:41.978Z,49.01
2023-04-11T19:30:13.882Z,49.37
2023-04-11T19:32:43.803Z,49.92
2023-04-11T19:35:14.205Z,50.26
2023-04-11T19:37:42.839Z,50.65
2023-04-11T19:40:13.610Z,50.35
2023-04-11T19:42:43.243Z,51.07
2023-04-11T19:45:15.159Z,50.99
2023-04-11T19:47:43.542Z,51.08
2023-04-11T19:50:14.531Z,50.10
2023-04-11T19:52:44.089Z,51.13
2023-04-11T19:55:13.259Z,51.33
2023-04-11T19:57:43.831Z,51.14
2023-04-11T20:00:14.358Z,52.22
2023-04-11T20:02:45.969Z,52.51
2023-04-11T20:05:18.066Z,52.16
2023-04-11T20:07:46.628Z,54.73
2023-04-11T20:10:18.665Z,53.29
2023-04-11T20:12:47.026Z,54.49
2023-04-11T20:15:15.450Z,53.92
2023-04-11T20:17:45.869Z,55.03
2023-04-11T20:20:15.792Z,55.79
2023-04-11T20:22:46.042Z,55.63
2023-04-11T20:25:14.348Z,55.92
2023-04-11T20:27:43.832Z,56.46
2023-04-11T20:30:13.944Z,57.12
2023-04-11T20:32:42.586Z,56.75
2023-04-11T20:35:12.275Z,56.45
2023-04-11T20:37:41.410Z,56.65
2023-04-11T20:40:13.210Z,56.56
2023-04-11T20:42:42.872Z,56.98
2023-04-11T20:45:13.103Z,57.25
2023-04-11T20:47:44.895Z,57.27
2023-04-11T20:50:15.982Z,56.58
2023-04-11T20:52:46.699Z,57.06
2023-04-11T20:55:16.463Z,56.75
2023-04-11T20:57:45.276Z,56.24
2023-04-11T21:00:14.886Z,56.00
2023-04-11T21:02:44.587Z,55.67
2023-04-11T21:05:13.380Z,55.44
2023-04-11T21:07:43.391Z,56.14
2023-04-11T21:10:13.186Z,56.09
2023-04-11T21:12:42.950Z,56.25
2023-04-11T21:15:12.060Z,55.87
2023-04-11T21:17:40.782Z,55.49
2023-04-11T21:20:18.036Z,55.67
2023-04-11T21:22:47.895Z,55.13
2023-04-11T21:25:17.059Z,55.73
2023-04-11T21:27:46.880Z,55.89
2023-04-11T21:30:15.995Z,55.85
2023-04-11T21:32:44.389Z,56.06
2023-04-11T21:35:13.457Z,55.80
2023-04-11T21:37:41.768Z,56.17
2023-04-11T21:40:10.905Z,56.48
2023-04-11T21:42:39.922Z,59.88
2023-04-11T21:45:10.649Z,56.67
2023-04-11T21:47:38.933Z,56.78
2023-04-11T21:50:08.415Z,57.28
2023-04-11T21:52:36.687Z,58.28
2023-04-11T21:55:08.029Z,57.24
2023-04-11T21:57:37.084Z,57.28
2023-04-11T22:00:06.273Z,55.90
2023-04-11T22:02:36.899Z,54.66
2023-04-11T22:05:06.981Z,56.72
2023-04-11T22:07:39.578Z,55.38
2023-04-11T22:10:11.928Z,56.07
2023-04-11T22:12:40.814Z,55.41
2023-04-11T22:15:12.808Z,55.01
2023-04-11T22:17:43.821Z,55.10
2023-04-11T22:20:13.354Z,55.19
2023-04-11T22:22:42.202Z,54.11
2023-04-11T22:25:11.755Z,53.96
2023-04-11T22:27:41.353Z,54.42
2023-04-11T22:30:11.269Z,56.26
2023-04-11T22:32:39.527Z,55.93
2023-04-11T22:35:10.540Z,55.66
2023-04-11T22:37:38.852Z,55.32
2023-04-11T22:40:11.370Z,58.03
2023-04-11T22:42:40.019Z,56.97
2023-04-11T22:45:09.496Z,57.41
2023-04-11T22:47:38.284Z,57.81
2023-04-11T22:50:09.475Z,57.54
2023-04-11T22:52:37.868Z,57.32
2023-04-11T22:55:07.466Z,56.88
2023-04-11T22:57:36.904Z,56.85
2023-04-11T23:00:07.268Z,56.43
2023-04-11T23:02:37.581Z,56.13
2023-04-11T23:05:06.605Z,55.98
2023-04-11T23:07:36.234Z,55.16
2023-04-11T23:10:06.251Z,55.42
2023-04-11T23:12:34.594Z,55.73
2023-04-11T23:15:03.387Z,56.59
2023-04-11T23:17:31.711Z,58.07
2023-04-11T23:20:00.466Z,56.29
2023-04-11T23:22:28.801Z,56.12
2023-04-11T23:24:58.972Z,56.05
2023-04-11T23:27:27.842Z,56.88
2023-04-11T23:29:56.101Z,56.90
2023-04-11T23:32:24.428Z,57.31
2023-04-11T23:34:52.799Z,56.72
2023-04-11T23:37:21.102Z,57.10
2023-04-11T23:39:49.512Z,57.45
2023-04-11T23:42:19.211Z,56.75
2023-04-11T23:44:47.970Z,56.14
2023-04-11T23:47:16.180Z,56.07
2023-04-11T23:49:44.578Z,55.63
2023-04-11T23:52:14.167Z,57.04
2023-04-11T23:54:42.499Z,57.26
2023-04-11T23:57:10.717Z,58.73
2023-04-11T23:59:40.582Z,57.87
